Time;durP1;ratioP1;P1;durP2;ratioP2;P2;SDS_P1;SDS_P2;PMS_P1;PMS_P2;Temp;Humidity;BMP_temperature;BMP_pressure;BME280_temperature;BME280_humidity;BME280_pressure;Samples;Min_cycle;Max_cycle;Signal;HPM_P1;HPM_P2
2021/06/21 00:00:05;;;;;;;13.27;8.98;;;24.00;99.90;;;;;;5093978;28;20092;-75
2021/06/21 00:02:31;;;;;;;14.05;9.30;;;24.00;99.90;;;;;;5101911;28;20035;-75
2021/06/21 00:04:56;;;;;;;16.38;9.35;;;24.00;99.90;;;;;;5106542;28;20032;-75
2021/06/21 00:07:22;;;;;;;16.48;9.20;;;24.00;99.90;;;;;;5095710;28;20051;-75
2021/06/21 00:09:48;;;;;;;17.05;10.45;;;24.00;99.90;;;;;;5101617;28;20114;-76
2021/06/21 00:12:15;;;;;;;16.85;9.73;;;24.00;99.90;;;;;;5106987;28;20484;-75
2021/06/21 00:14:41;;;;;;;12.00;9.30;;;24.10;99.90;;;;;;5095529;28;20032;-75
2021/06/21 00:17:07;;;;;;;11.57;9.30;;;24.10;99.90;;;;;;5094659;28;20020;-76
2021/06/21 00:19:32;;;;;;;10.68;9.30;;;24.10;99.90;;;;;;5103189;28;20031;-75
2021/06/21 00:21:59;;;;;;;11.88;9.32;;;24.10;99.90;;;;;;5100730;28;20020;-76
2021/06/21 00:24:24;;;;;;;18.08;10.75;;;24.10;99.90;;;;;;5100829;28;20032;-75
2021/06/21 00:26:51;;;;;;;17.63;9.75;;;24.00;99.90;;;;;;5103664;28;20134;-76
2021/06/21 00:29:17;;;;;;;13.88;9.68;;;24.00;99.90;;;;;;5105631;28;20092;-76
2021/06/21 00:31:44;;;;;;;14.93;9.80;;;24.00;99.90;;;;;;5099773;28;20028;-76
2021/06/21 00:34:09;;;;;;;13.35;9.20;;;24.00;99.90;;;;;;5099679;28;20102;-76
2021/06/21 00:36:35;;;;;;;14.98;9.93;;;23.90;99.90;;;;;;5097720;27;20063;-75
2021/06/21 00:39:02;;;;;;;14.48;9.88;;;23.90;99.90;;;;;;5112241;28;20102;-76
2021/06/21 00:41:28;;;;;;;11.23;9.35;;;23.90;99.90;;;;;;5100233;28;20106;-75
2021/06/21 00:43:53;;;;;;;14.90;9.98;;;23.80;99.90;;;;;;5104737;28;20157;-75
2021/06/21 00:46:21;;;;;;;14.35;8.85;;;23.80;99.90;;;;;;5094195;28;20027;-76
2021/06/21 00:48:46;;;;;;;10.88;8.85;;;23.80;99.90;;;;;;5101952;28;20039;-75
2021/06/21 00:51:12;;;;;;;16.35;9.13;;;23.80;99.90;;;;;;5106643;28;20494;-76
2021/06/21 00:53:38;;;;;;;12.00;8.95;;;23.70;99.90;;;;;;5102652;28;20042;-75
2021/06/21 00:56:05;;;;;;;10.18;7.88;;;23.70;99.90;;;;;;5105507;28;20020;-75
2021/06/21 00:58:30;;;;;;;13.82;7.70;;;23.70;99.90;;;;;;5105007;28;20028;-75
2021/06/21 01:00:56;;;;;;;9.63;7.57;;;23.70;99.90;;;;;;5101932;28;20054;-75
2021/06/21 01:03:24;;;;;;;11.02;7.88;;;23.60;99.90;;;;;;5100268;28;20073;-75
2021/06/21 01:05:50;;;;;;;10.77;7.75;;;23.60;99.90;;;;;;5105098;28;20394;-75
2021/06/21 01:08:15;;;;;;;9.85;7.72;;;23.60;99.90;;;;;;5096087;28;20040;-76
2021/06/21 01:10:46;;;;;;;12.20;7.72;;;23.60;99.90;;;;;;5101904;28;20034;-75
2021/06/21 01:13:23;;;;;;;11.43;7.80;;;23.50;99.90;;;;;;5103792;28;20088;-75
2021/06/21 01:15:56;;;;;;;9.10;7.18;;;23.50;99.90;;;;;;5095322;28;20032;-76
2021/06/21 01:18:27;;;;;;;11.02;7.25;;;23.50;99.90;;;;;;5105000;28;20024;-75
2021/06/21 01:21:11;;;;;;;7.45;6.70;;;23.40;99.90;;;;;;5106374;28;20028;-75
2021/06/21 01:24:06;;;;;;;10.52;7.75;;;23.50;99.90;;;;;;5099472;28;20393;-76
2021/06/21 01:26:49;;;;;;;16.83;7.25;;;23.40;99.90;;;;;;5065043;28;20032;-75
2021/06/21 01:29:46;;;;;;;13.30;7.03;;;23.40;99.90;;;;;;5098067;28;20200;-76
2021/06/21 01:32:18;;;;;;;10.27;6.65;;;23.40;99.90;;;;;;5099066;28;20027;-75
2021/06/21 01:34:55;;;;;;;9.00;6.93;;;23.40;99.90;;;;;;5102006;28;20016;-75
2021/06/21 01:37:23;;;;;;;11.93;7.10;;;23.40;99.90;;;;;;5095609;28;20028;-75
2021/06/21 01:39:53;;;;;;;12.75;7.00;;;23.30;99.90;;;;;;5101971;28;20028;-75
2021/06/21 01:42:21;;;;;;;9.77;6.97;;;23.30;99.90;;;;;;5091580;28;20077;-75
2021/06/21 01:45:00;;;;;;;8.25;7.35;;;23.30;99.90;;;;;;5104284;28;20034;-75
2021/06/21 01:47:27;;;;;;;9.43;6.45;;;23.30;99.90;;;;;;5097063;28;20035;-76
2021/06/21 01:49:53;;;;;;;14.52;7.28;;;23.30;99.90;;;;;;5110339;28;20023;-75
2021/06/21 01:52:20;;;;;;;12.20;7.63;;;23.30;99.90;;;;;;5096344;28;20478;-76
2021/06/21 01:54:50;;;;;;;9.80;7.57;;;23.30;99.90;;;;;;5106749;28;20405;-76
2021/06/21 01:57:23;;;;;;;12.77;7.80;;;23.30;99.90;;;;;;5095227;28;20085;-75
2021/06/21 01:59:50;;;;;;;12.98;8.23;;;23.30;99.90;;;;;;5107905;28;20036;-75
2021/06/21 02:02:18;;;;;;;9.15;6.72;;;23.30;99.90;;;;;;5097223;28;20115;-75
2021/06/21 02:04:45;;;;;;;13.02;8.48;;;23.30;99.90;;;;;;5104654;28;20529;-75
2021/06/21 02:07:11;;;;;;;15.73;8.60;;;23.30;99.90;;;;;;5102305;28;20074;-75
2021/06/21 02:09:37;;;;;;;14.25;8.13;;;23.30;99.90;;;;;;5107168;28;20485;-75
2021/06/21 02:12:04;;;;;;;14.45;8.52;;;23.30;99.90;;;;;;5105995;28;20115;-75
2021/06/21 02:14:32;;;;;;;13.48;8.23;;;23.30;99.90;;;;;;5102971;28;20131;-76
2021/06/21 02:16:59;;;;;;;26.40;8.55;;;23.30;99.90;;;;;;5098448;28;20428;-75
2021/06/21 02:19:27;;;;;;;14.13;8.43;;;23.30;99.90;;;;;;5100634;28;20091;-75
2021/06/21 02:21:53;;;;;;;14.85;7.90;;;23.30;99.90;;;;;;5104865;28;20028;-76
2021/06/21 02:24:19;;;;;;;16.73;8.23;;;23.30;99.90;;;;;;5105805;28;20023;-75
2021/06/21 02:26:50;;;;;;;12.90;9.05;;;23.30;99.90;;;;;;5101027;28;20089;-76
2021/06/21 02:29:19;;;;;;;12.37;7.63;;;23.20;99.90;;;;;;5093646;28;20066;-75
2021/06/21 02:31:47;;;;;;;15.45;7.60;;;23.20;99.90;;;;;;5100313;28;20402;-76
2021/06/21 02:34:13;;;;;;;11.68;8.07;;;23.30;99.90;;;;;;5103109;28;20069;-75
2021/06/21 02:36:39;;;;;;;14.50;8.23;;;23.30;99.90;;;;;;5104665;28;20405;-75
2021/06/21 02:39:06;;;;;;;13.85;8.50;;;23.20;99.90;;;;;;5104871;28;20023;-76
2021/06/21 02:41:31;;;;;;;16.70;8.23;;;23.20;99.90;;;;;;5095892;28;20622;-75
2021/06/21 02:43:57;;;;;;;11.25;8.32;;;23.20;99.90;;;;;;5095220;28;20035;-75
2021/06/21 02:46:22;;;;;;;9.35;7.88;;;23.20;99.90;;;;;;5096003;28;20028;-75
2021/06/21 02:48:48;;;;;;;12.80;7.90;;;23.20;99.90;;;;;;5097362;28;20020;-75
2021/06/21 02:51:19;;;;;;;14.02;8.43;;;23.10;99.90;;;;;;5106343;28;20035;-75
2021/06/21 02:53:57;;;;;;;13.35;8.45;;;23.10;99.90;;;;;;5092802;28;20012;-75
2021/06/21 02:56:29;;;;;;;21.23;9.63;;;23.00;99.90;;;;;;5107426;28;20115;-74
2021/06/21 02:59:02;;;;;;;13.77;8.52;;;23.00;99.90;;;;;;5102128;28;20012;-77
2021/06/21 03:01:28;;;;;;;18.95;10.35;;;22.90;99.90;;;;;;5100320;28;20027;-76
2021/06/21 03:03:55;;;;;;;12.77;9.32;;;22.80;99.90;;;;;;5102271;28;20024;-76
2021/06/21 03:06:23;;;;;;;14.27;10.38;;;22.80;99.90;;;;;;5100216;28;20611;-76
2021/06/21 03:08:50;;;;;;;18.70;11.38;;;22.70;99.90;;;;;;5095330;28;20032;-76
2021/06/21 03:11:17;;;;;;;16.92;12.00;;;22.70;99.90;;;;;;5096579;28;20123;-76
2021/06/21 03:13:54;;;;;;;16.52;11.60;;;22.70;99.90;;;;;;5093862;28;20028;-76
2021/06/21 03:16:19;;;;;;;17.27;11.65;;;22.80;99.90;;;;;;5103394;28;20048;-76
2021/06/21 03:18:47;;;;;;;16.58;11.77;;;22.70;99.90;;;;;;5102383;28;20106;-76
2021/06/21 03:21:17;;;;;;;17.55;11.88;;;22.70;99.90;;;;;;5105351;28;20089;-75
2021/06/21 03:23:42;;;;;;;16.15;12.27;;;22.70;99.90;;;;;;5108776;28;20490;-76
2021/06/21 03:26:08;;;;;;;15.88;12.35;;;22.70;99.90;;;;;;5107931;28;20122;-75
2021/06/21 03:28:34;;;;;;;18.70;12.30;;;22.80;99.90;;;;;;5104718;28;20024;-76
2021/06/21 03:31:05;;;;;;;14.40;11.88;;;22.70;99.90;;;;;;5103694;28;20026;-76
2021/06/21 03:33:31;;;;;;;18.25;11.48;;;22.70;99.90;;;;;;5109189;28;20070;-75
2021/06/21 03:35:57;;;;;;;15.07;12.02;;;22.70;99.90;;;;;;5102217;28;20035;-76
2021/06/21 03:38:27;;;;;;;15.32;11.93;;;22.70;99.90;;;;;;5104096;28;20114;-76
2021/06/21 03:40:56;;;;;;;24.38;12.55;;;22.70;99.90;;;;;;5106040;28;20106;-76
2021/06/21 03:43:24;;;;;;;15.40;12.27;;;22.70;99.90;;;;;;5108748;28;20027;-75
2021/06/21 03:45:51;;;;;;;18.27;12.32;;;22.70;99.90;;;;;;5095164;28;20036;-75
2021/06/21 03:48:18;;;;;;;17.10;11.45;;;22.60;99.90;;;;;;5093464;28;20077;-76
2021/06/21 03:50:44;;;;;;;15.77;12.00;;;22.60;99.90;;;;;;5093165;28;20070;-76
2021/06/21 03:53:12;;;;;;;15.27;11.55;;;22.60;99.90;;;;;;5106211;28;20023;-75
2021/06/21 03:55:37;;;;;;;15.45;12.00;;;22.60;99.90;;;;;;5100587;28;20212;-76
2021/06/21 03:58:03;;;;;;;15.68;11.77;;;22.60;99.90;;;;;;5102512;28;20381;-76
2021/06/21 04:00:30;;;;;;;17.50;10.98;;;22.60;99.90;;;;;;5107494;28;20024;-76
2021/06/21 04:02:57;;;;;;;18.30;10.63;;;22.60;99.90;;;;;;5100207;28;20028;-76
2021/06/21 04:05:23;;;;;;;14.60;10.60;;;22.60;99.90;;;;;;5105276;28;20490;-76
2021/06/21 04:07:49;;;;;;;17.52;9.77;;;22.60;99.90;;;;;;5104023;28;20047;-75
2021/06/21 04:10:18;;;;;;;12.07;9.77;;;22.60;99.90;;;;;;5101747;28;20044;-75
2021/06/21 04:12:46;;;;;;;12.00;9.75;;;22.60;99.90;;;;;;5093326;28;20031;-75
2021/06/21 04:15:14;;;;;;;15.73;9.68;;;22.60;99.90;;;;;;5098398;28;20033;-75
2021/06/21 04:17:41;;;;;;;11.70;9.35;;;22.60;99.90;;;;;;5104322;28;20020;-75
2021/06/21 04:20:09;;;;;;;14.00;9.65;;;22.50;99.90;;;;;;5101868;28;20078;-75
2021/06/21 04:22:35;;;;;;;13.68;8.93;;;22.50;99.90;;;;;;5103359;28;20027;-76
2021/06/21 04:25:01;;;;;;;13.80;9.15;;;22.50;99.90;;;;;;5108797;27;20024;-76
2021/06/21 04:27:26;;;;;;;16.63;9.30;;;22.50;99.90;;;;;;5097934;28;20523;-76
2021/06/21 04:29:52;;;;;;;13.98;9.73;;;22.50;99.90;;;;;;5093424;28;20031;-76
2021/06/21 04:32:17;;;;;;;13.45;8.90;;;22.50;99.90;;;;;;5104799;28;20027;-75
2021/06/21 04:34:43;;;;;;;10.10;8.90;;;22.50;99.90;;;;;;5107291;28;20027;-76
2021/06/21 04:37:09;;;;;;;13.13;8.95;;;22.50;99.90;;;;;;5097736;28;20355;-76
2021/06/21 04:39:34;;;;;;;12.90;9.50;;;22.50;99.90;;;;;;5103354;27;20024;-76
2021/06/21 04:42:02;;;;;;;10.98;9.05;;;22.50;99.90;;;;;;5103369;28;20060;-75
2021/06/21 04:44:27;;;;;;;11.40;8.73;;;22.50;99.90;;;;;;5101085;28;20542;-76
2021/06/21 04:46:53;;;;;;;11.98;8.77;;;22.40;99.90;;;;;;5108411;28;20024;-76
2021/06/21 04:49:19;;;;;;;16.67;8.82;;;22.40;99.90;;;;;;5094697;28;20435;-76
2021/06/21 04:51:45;;;;;;;12.40;8.98;;;22.40;99.90;;;;;;5098151;28;20085;-76
2021/06/21 04:54:12;;;;;;;11.35;8.80;;;22.40;99.90;;;;;;5104405;27;20047;-76
2021/06/21 04:56:39;;;;;;;12.15;8.82;;;22.40;99.90;;;;;;5102087;28;20048;-76
2021/06/21 04:59:07;;;;;;;10.85;8.25;;;22.40;99.90;;;;;;5100591;28;20027;-76
2021/06/21 05:01:33;;;;;;;12.90;8.60;;;22.40;99.90;;;;;;5101876;28;20036;-76
2021/06/21 05:04:04;;;;;;;13.52;8.10;;;22.40;99.90;;;;;;5106175;28;20215;-76
2021/06/21 05:06:33;;;;;;;10.88;8.02;;;22.40;99.90;;;;;;5102526;28;20948;-76
2021/06/21 05:08:59;;;;;;;12.93;8.82;;;22.40;99.90;;;;;;5095562;27;20019;-76
2021/06/21 05:11:24;;;;;;;12.93;8.45;;;22.50;99.90;;;;;;5106520;27;20508;-76
2021/06/21 05:13:50;;;;;;;12.55;8.25;;;22.60;99.90;;;;;;5093191;28;20019;-76
2021/06/21 05:16:16;;;;;;;12.93;9.40;;;22.60;99.90;;;;;;5099616;28;20024;-76
2021/06/21 05:18:42;;;;;;;17.70;8.32;;;22.60;99.90;;;;;;5103701;28;20024;-76
2021/06/21 05:21:07;;;;;;;12.25;8.10;;;22.60;99.90;;;;;;5103742;28;20486;-76
2021/06/21 05:23:33;;;;;;;11.30;7.88;;;22.60;99.90;;;;;;5102326;28;20031;-76
2021/06/21 05:25:58;;;;;;;10.35;8.52;;;22.70;99.90;;;;;;5100142;28;20052;-76
2021/06/21 05:28:24;;;;;;;13.68;8.00;;;22.70;99.90;;;;;;5098416;28;20034;-76
2021/06/21 05:30:49;;;;;;;14.68;8.05;;;22.60;99.90;;;;;;5100113;27;20016;-76
2021/06/21 05:33:15;;;;;;;16.85;8.70;;;22.70;99.90;;;;;;5103737;28;20043;-76
2021/06/21 05:35:43;;;;;;;9.73;8.73;;;22.60;99.90;;;;;;5091103;28;20649;-77
2021/06/21 05:38:09;;;;;;;14.40;8.65;;;22.70;99.90;;;;;;5099709;28;20032;-76
2021/06/21 05:40:35;;;;;;;10.90;8.05;;;22.70;99.90;;;;;;5104770;28;20402;-76
2021/06/21 05:43:03;;;;;;;14.73;8.30;;;22.80;99.90;;;;;;5104078;28;20057;-77
2021/06/21 05:45:28;;;;;;;11.45;8.00;;;22.90;99.90;;;;;;5108090;28;20080;-76
2021/06/21 05:47:54;;;;;;;10.45;8.18;;;22.90;99.90;;;;;;5101306;28;20035;-74
2021/06/21 05:50:19;;;;;;;16.00;8.80;;;23.00;99.90;;;;;;5099069;28;20023;-77
2021/06/21 05:52:49;;;;;;;13.60;8.07;;;23.00;99.90;;;;;;5098595;28;20069;-74
2021/06/21 05:55:18;;;;;;;10.70;8.68;;;23.10;99.90;;;;;;5096512;28;20039;-75
2021/06/21 05:57:47;;;;;;;11.45;8.25;;;23.20;99.90;;;;;;5117655;27;20027;-76
2021/06/21 06:00:13;;;;;;;13.18;8.88;;;23.30;99.90;;;;;;5106941;27;20549;-75
2021/06/21 06:02:39;;;;;;;11.15;8.32;;;23.40;99.90;;;;;;5092035;28;20028;-74
2021/06/21 06:05:34;;;;;;;12.85;8.55;;;23.40;99.90;;;;;;5097695;28;21499;-75
2021/06/21 06:08:00;;;;;;;12.18;8.38;;;23.50;99.90;;;;;;5089152;28;20052;-75
2021/06/21 06:10:25;;;;;;;12.90;8.00;;;23.60;99.90;;;;;;5096109;28;20359;-76
2021/06/21 06:12:51;;;;;;;10.80;7.78;;;23.60;99.90;;;;;;5102380;28;20419;-76
2021/06/21 06:15:17;;;;;;;9.23;7.75;;;23.60;99.90;;;;;;5102649;28;20027;-76
2021/06/21 06:18:01;;;;;;;12.43;8.65;;;23.60;99.90;;;;;;5104768;28;20064;-75
2021/06/21 06:20:26;;;;;;;14.48;9.38;;;23.40;99.90;;;;;;5095216;28;20073;-75
2021/06/21 06:22:52;;;;;;;13.38;9.07;;;23.30;99.90;;;;;;5099876;28;20047;-76
2021/06/21 06:25:18;;;;;;;11.95;8.90;;;23.30;99.90;;;;;;5103006;28;20367;-75
2021/06/21 06:27:44;;;;;;;12.68;9.35;;;23.30;99.90;;;;;;5104434;28;20028;-74
2021/06/21 06:30:11;;;;;;;15.95;9.18;;;23.20;99.90;;;;;;5101145;28;20032;-76
2021/06/21 06:32:38;;;;;;;14.95;8.63;;;23.30;99.90;;;;;;5101839;28;20045;-75
2021/06/21 06:35:05;;;;;;;14.93;9.48;;;23.40;99.90;;;;;;5094735;28;20039;-76
2021/06/21 06:37:30;;;;;;;14.25;9.70;;;23.60;99.90;;;;;;5103796;28;20023;-76
2021/06/21 06:39:56;;;;;;;12.60;8.85;;;23.80;99.90;;;;;;5106564;28;20133;-76
2021/06/21 06:42:22;;;;;;;11.82;8.95;;;24.00;99.90;;;;;;5107060;28;20023;-76
2021/06/21 06:44:48;;;;;;;18.08;8.55;;;24.00;99.90;;;;;;5107459;28;20043;-76
2021/06/21 06:47:13;;;;;;;13.73;8.98;;;24.20;99.90;;;;;;5107545;28;20034;-77
2021/06/21 06:49:39;;;;;;;14.60;9.90;;;24.20;99.90;;;;;;5107414;28;20160;-76
2021/06/21 06:52:04;;;;;;;14.82;9.90;;;24.30;99.90;;;;;;5110136;28;20469;-76
2021/06/21 06:57:18;;;;;;;13.98;10.20;;;24.30;99.90;;;;;;5091343;28;20035;-77
2021/06/21 06:59:44;;;;;;;15.45;9.90;;;24.30;99.90;;;;;;5110757;28;20054;-77
2021/06/21 07:02:21;;;;;;;12.55;10.23;;;24.30;99.90;;;;;;5111325;28;20054;-75
2021/06/21 07:04:46;;;;;;;15.73;11.32;;;24.30;99.90;;;;;;5111326;28;20123;-76
2021/06/21 07:07:12;;;;;;;16.63;11.23;;;24.30;99.90;;;;;;5107257;28;20506;-76
2021/06/21 07:09:38;;;;;;;15.68;10.70;;;24.40;99.90;;;;;;5107947;28;20144;-76
2021/06/21 07:12:04;;;;;;;15.45;11.20;;;24.50;99.90;;;;;;5107850;28;20102;-77
2021/06/21 07:14:29;;;;;;;13.60;11.00;;;24.60;99.90;;;;;;5109137;28;20071;-76
2021/06/21 07:16:56;;;;;;;12.70;10.43;;;24.70;99.90;;;;;;5107231;28;20110;-76
2021/06/21 07:19:22;;;;;;;18.00;10.40;;;24.70;99.90;;;;;;5108566;28;20028;-77
2021/06/21 07:21:49;;;;;;;19.65;10.90;;;24.80;99.90;;;;;;5107619;28;20030;-77
2021/06/21 07:24:15;;;;;;;12.68;10.50;;;24.90;99.90;;;;;;5110260;28;20059;-77
2021/06/21 07:26:43;;;;;;;13.10;9.75;;;25.00;99.90;;;;;;5108151;28;20019;-77
2021/06/21 07:29:09;;;;;;;18.52;11.60;;;25.20;99.90;;;;;;5108015;28;20114;-77
2021/06/21 07:31:35;;;;;;;16.88;10.52;;;25.40;99.90;;;;;;5110599;28;20024;-77
2021/06/21 07:34:04;;;;;;;14.60;10.23;;;25.60;99.90;;;;;;5110309;28;20047;-77
2021/06/21 07:36:30;;;;;;;17.27;10.85;;;25.70;99.90;;;;;;5107828;28;20019;-77
2021/06/21 07:38:56;;;;;;;14.32;9.75;;;25.90;99.90;;;;;;5109105;28;20027;-77
2021/06/21 07:41:22;;;;;;;14.05;9.63;;;26.00;99.90;;;;;;5109178;28;20150;-79
2021/06/21 07:43:49;;;;;;;14.57;10.55;;;26.10;99.90;;;;;;5106859;28;20042;-79
2021/06/21 07:46:15;;;;;;;15.73;10.20;;;26.10;99.40;;;;;;5105987;28;20035;-78
2021/06/21 07:48:41;;;;;;;10.70;8.43;;;26.10;98.60;;;;;;5093730;28;20393;-77
2021/06/21 07:51:13;;;;;;;22.67;11.43;;;25.80;98.70;;;;;;5105913;27;20116;-80
2021/06/21 07:53:39;;;;;;;18.63;10.95;;;25.70;99.20;;;;;;5101674;28;20077;-77
2021/06/21 07:56:05;;;;;;;19.23;11.43;;;25.60;99.60;;;;;;5104450;28;20475;-77
2021/06/21 07:58:32;;;;;;;15.82;10.60;;;25.60;99.20;;;;;;5110690;28;20027;-80
2021/06/21 08:00:58;;;;;;;21.65;10.48;;;25.50;99.90;;;;;;5111396;28;20538;-77
2021/06/21 08:03:24;;;;;;;12.73;8.60;;;25.50;99.90;;;;;;5107207;27;20177;-77
2021/06/21 08:05:50;;;;;;;13.05;9.57;;;25.50;99.40;;;;;;5100648;28;20486;-76
2021/06/21 08:08:16;;;;;;;18.42;10.60;;;25.50;99.90;;;;;;5097760;28;20105;-77
2021/06/21 08:10:42;;;;;;;13.70;9.85;;;25.60;99.60;;;;;;5098334;27;20031;-76
2021/06/21 08:13:07;;;;;;;16.02;9.98;;;25.60;99.30;;;;;;5099801;28;20149;-76
2021/06/21 08:15:33;;;;;;;16.80;10.48;;;25.70;99.40;;;;;;5104589;27;20042;-76
2021/06/21 08:17:59;;;;;;;16.55;9.63;;;25.80;99.10;;;;;;5112176;27;20031;-78
2021/06/21 08:20:24;;;;;;;13.43;9.65;;;25.90;99.10;;;;;;5104153;28;20035;-77
2021/06/21 08:22:50;;;;;;;19.15;9.93;;;26.10;98.20;;;;;;5095815;28;20020;-78
2021/06/21 08:25:15;;;;;;;14.70;9.85;;;26.20;98.10;;;;;;5109801;28;20024;-77
2021/06/21 08:27:41;;;;;;;12.80;8.80;;;26.30;96.80;;;;;;5104381;28;20055;-77
2021/06/21 08:30:08;;;;;;;14.50;7.90;;;26.30;96.30;;;;;;5108718;28;20027;-76
2021/06/21 08:32:33;;;;;;;16.23;6.95;;;26.30;96.80;;;;;;5095536;28;20081;-77
2021/06/21 08:34:59;;;;;;;13.02;5.93;;;26.30;95.00;;;;;;5097408;28;20028;-76
2021/06/21 08:37:25;;;;;;;12.95;6.18;;;26.40;93.60;;;;;;5101430;28;20470;-77
2021/06/21 08:39:52;;;;;;;8.70;6.03;;;26.40;93.30;;;;;;5102237;28;20557;-81
2021/06/21 08:42:19;;;;;;;6.03;5.05;;;26.40;93.00;;;;;;5108981;28;20028;-81
2021/06/21 08:44:45;;;;;;;15.27;5.40;;;26.50;92.60;;;;;;5098165;28;20274;-83
2021/06/21 08:47:13;;;;;;;6.13;4.53;;;26.50;92.50;;;;;;5096926;28;20028;-76
2021/06/21 08:49:47;;;;;;;5.95;3.85;;;26.50;92.20;;;;;;5104737;28;20027;-76
2021/06/21 08:52:14;;;;;;;3.88;2.92;;;26.60;88.50;;;;;;5101843;28;20028;-75
2021/06/21 08:54:39;;;;;;;8.18;3.33;;;26.60;87.90;;;;;;5100135;27;20046;-76
2021/06/21 08:57:05;;;;;;;8.73;3.15;;;26.60;87.00;;;;;;5097834;28;20020;-75
2021/06/21 08:59:31;;;;;;;10.77;3.05;;;26.60;86.80;;;;;;5098264;28;20024;-77
2021/06/21 09:01:57;;;;;;;6.55;2.60;;;26.60;86.70;;;;;;5104979;28;20031;-77
2021/06/21 09:04:24;;;;;;;6.55;2.80;;;26.60;84.30;;;;;;5097533;28;20497;-76
2021/06/21 09:06:50;;;;;;;7.85;3.30;;;26.50;86.20;;;;;;5108686;27;20039;-75
2021/06/21 09:09:15;;;;;;;4.82;2.42;;;26.60;85.70;;;;;;5103692;28;20566;-76
2021/06/21 09:11:48;;;;;;;3.15;2.00;;;26.60;84.20;;;;;;5107443;28;20119;-79
2021/06/21 09:14:26;;;;;;;9.30;2.03;;;26.50;83.80;;;;;;5102181;28;20081;-77
2021/06/21 09:16:59;;;;;;;3.30;1.80;;;26.50;85.30;;;;;;5099420;28;20031;-76
2021/06/21 09:19:25;;;;;;;6.97;1.80;;;26.50;83.40;;;;;;5096498;28;20114;-77
2021/06/21 09:21:51;;;;;;;5.13;1.75;;;26.60;82.40;;;;;;5093609;28;20051;-76
2021/06/21 09:24:19;;;;;;;5.20;1.73;;;26.80;80.40;;;;;;5102833;28;20127;-76
2021/06/21 09:26:51;;;;;;;6.18;1.88;;;26.80;81.20;;;;;;5102808;28;20028;-74
2021/06/21 09:29:16;;;;;;;;;;;26.90;80.90;;;;;;5106996;28;20027;-75
2021/06/21 09:31:53;;;;;;;3.40;2.20;;;27.00;79.90;;;;;;5103793;28;19912;-74
2021/06/21 09:34:20;;;;;;;6.15;2.03;;;27.10;81.30;;;;;;5099977;28;20024;-75
2021/06/21 09:36:46;;;;;;;6.32;1.70;;;27.10;80.00;;;;;;5096814;28;20031;-75
2021/06/21 09:39:16;;;;;;;8.57;2.50;;;27.10;81.70;;;;;;5100449;28;20491;-74
2021/06/21 09:41:42;;;;;;;2.10;1.90;;;27.10;79.80;;;;;;5099572;28;20048;-74
2021/06/21 09:44:07;;;;;;;4.70;2.55;;;27.20;81.50;;;;;;5105915;28;20043;-74
2021/06/21 09:46:33;;;;;;;3.17;2.30;;;27.30;80.40;;;;;;5103261;28;20106;-75
2021/06/21 09:48:58;;;;;;;4.63;2.05;;;27.50;79.90;;;;;;5101163;28;20382;-74
2021/06/21 09:51:37;;;;;;;3.92;2.40;;;27.60;78.30;;;;;;5108766;28;20474;-74
2021/06/21 09:54:11;;;;;;;4.90;2.30;;;27.70;78.50;;;;;;5098086;28;20024;-74
2021/06/21 09:56:42;;;;;;;4.80;2.35;;;27.70;78.20;;;;;;5093165;28;20023;-75
2021/06/21 09:59:21;;;;;;;;;;;27.60;79.70;;;;;;5108653;28;20030;-75
2021/06/21 10:02:07;;;;;;;6.82;3.00;;;27.50;79.10;;;;;;5101801;28;19916;-75
2021/06/21 10:04:36;;;;;;;5.28;3.20;;;27.50;79.90;;;;;;5100877;28;20028;-76
2021/06/21 10:07:03;;;;;;;5.22;3.30;;;27.30;82.30;;;;;;5103109;28;20051;-75
2021/06/21 10:09:30;;;;;;;3.78;2.80;;;27.30;80.70;;;;;;5100893;28;20097;-74
2021/06/21 10:11:55;;;;;;;7.18;3.85;;;27.40;81.40;;;;;;5109496;28;20026;-76
2021/06/21 10:14:23;;;;;;;6.40;3.45;;;27.40;80.60;;;;;;5102464;28;20032;-76
2021/06/21 10:16:50;;;;;;;6.50;3.63;;;27.50;82.70;;;;;;5097777;28;20034;-75
2021/06/21 10:19:17;;;;;;;7.55;3.92;;;27.60;80.80;;;;;;5103576;28;20020;-76
2021/06/21 10:21:46;;;;;;;5.35;3.47;;;27.70;80.70;;;;;;5103968;28;20112;-75
2021/06/21 10:24:12;;;;;;;6.20;3.42;;;27.60;82.50;;;;;;5101044;28;20076;-78
2021/06/21 10:26:39;;;;;;;4.97;3.63;;;27.60;81.00;;;;;;5100178;28;20024;-75
2021/06/21 10:29:05;;;;;;;4.50;3.90;;;27.70;80.80;;;;;;5102040;28;20531;-75
2021/06/21 10:31:46;;;;;;;7.97;3.40;;;27.70;80.10;;;;;;5100891;28;20088;-75
2021/06/21 10:34:15;;;;;;;4.78;3.60;;;27.70;81.70;;;;;;5100609;28;20085;-76
2021/06/21 10:36:57;;;;;;;5.25;3.70;;;27.80;81.00;;;;;;5094015;28;20063;-76
2021/06/21 10:39:34;;;;;;;7.18;4.43;;;27.90;80.20;;;;;;5096204;28;20727;-75
2021/06/21 10:42:05;;;;;;;8.48;4.20;;;28.00;79.10;;;;;;5100891;28;20028;-76
2021/06/21 10:44:38;;;;;;;9.10;3.72;;;28.10;79.50;;;;;;5108695;28;20033;-77
2021/06/21 10:47:27;;;;;;;9.38;3.80;;;28.20;78.40;;;;;;5100118;28;20031;-75
2021/06/21 10:50:09;;;;;;;6.85;3.80;;;28.30;79.60;;;;;;5096321;28;20032;-75
2021/06/21 10:52:37;;;;;;;7.47;3.55;;;28.30;77.50;;;;;;5100035;28;20052;-76
2021/06/21 10:55:33;;;;;;;8.70;3.75;;;28.40;80.60;;;;;;5106672;28;20413;-75
2021/06/21 10:58:04;;;;;;;6.03;3.72;;;28.60;76.90;;;;;;5100348;28;20020;-75
2021/06/21 11:00:36;;;;;;;;;;;28.80;75.70;;;;;;5097788;28;20115;-75
2021/06/21 11:03:23;;;;;;;7.45;3.20;;;28.80;75.30;;;;;;5106620;28;19912;-75
2021/06/21 11:05:54;;;;;;;4.82;3.20;;;29.00;74.10;;;;;;5107272;28;20078;-76
2021/06/21 11:08:24;;;;;;;;;;;29.10;74.70;;;;;;5106660;28;20501;-75
2021/06/21 11:10:52;;;;;;;9.40;3.78;;;29.30;74.50;;;;;;5108639;28;19937;-76
2021/06/21 11:13:36;;;;;;;4.30;3.30;;;29.50;72.90;;;;;;5108737;28;20031;-75
2021/06/21 11:16:19;;;;;;;12.10;3.28;;;29.60;73.00;;;;;;5099355;28;20038;-75
2021/06/21 11:19:13;;;;;;;4.57;3.22;;;29.70;73.50;;;;;;5108088;28;20023;-76
2021/06/21 11:21:53;;;;;;;7.07;3.88;;;30.10;70.50;;;;;;5108749;28;20020;-76
2021/06/21 11:24:46;;;;;;;7.25;3.50;;;30.30;68.50;;;;;;5107275;28;20072;-76
2021/06/21 11:27:16;;;;;;;4.63;3.10;;;30.30;69.00;;;;;;5106272;28;20035;-76
2021/06/21 11:29:44;;;;;;;7.18;3.60;;;30.70;67.20;;;;;;5108564;28;20027;-76
2021/06/21 11:32:12;;;;;;;3.97;3.33;;;31.10;63.70;;;;;;5108421;28;20478;-75
2021/06/21 11:34:49;;;;;;;5.55;3.80;;;31.40;63.60;;;;;;5107282;28;20043;-76
2021/06/21 11:37:33;;;;;;;4.15;2.80;;;31.70;62.40;;;;;;5107335;28;20020;-75
2021/06/21 11:40:23;;;;;;;5.88;3.15;;;32.10;60.30;;;;;;5112296;27;20110;-75
2021/06/21 11:42:58;;;;;;;5.22;3.10;;;32.70;59.00;;;;;;5087291;28;20039;-75
2021/06/21 11:45:51;;;;;;;5.43;3.20;;;33.20;57.80;;;;;;5112568;28;20047;-76
2021/06/21 11:48:32;;;;;;;5.35;2.85;;;33.70;56.20;;;;;;5110446;28;20035;-75
2021/06/21 11:51:00;;;;;;;4.53;2.53;;;34.00;54.40;;;;;;5106613;28;20024;-75
2021/06/21 11:53:27;;;;;;;7.05;2.97;;;34.00;53.50;;;;;;5104627;28;20024;-75
2021/06/21 11:55:53;;;;;;;12.45;3.10;;;34.00;52.90;;;;;;5091677;28;20024;-75
2021/06/21 11:58:32;;;;;;;6.80;2.88;;;34.10;54.70;;;;;;5102873;28;20407;-76
2021/06/21 12:00:59;;;;;;;3.92;2.83;;;34.70;53.90;;;;;;5111052;28;20024;-75
2021/06/21 12:03:30;;;;;;;5.20;3.10;;;35.10;51.90;;;;;;5110363;28;20039;-75
2021/06/21 12:05:56;;;;;;;5.32;2.72;;;35.20;50.90;;;;;;5107039;28;20031;-76
2021/06/21 12:08:22;;;;;;;7.20;2.65;;;35.00;50.60;;;;;;5103908;28;20040;-75
2021/06/21 12:10:47;;;;;;;7.05;3.15;;;35.30;51.20;;;;;;5110766;28;20104;-75
2021/06/21 12:13:17;;;;;;;9.00;3.67;;;35.70;50.30;;;;;;5111675;28;20530;-76
2021/06/21 12:15:43;;;;;;;4.93;3.00;;;36.40;49.30;;;;;;5108644;28;20023;-75
2021/06/21 12:18:09;;;;;;;4.88;2.80;;;36.60;47.30;;;;;;5111584;28;20422;-75
2021/06/21 12:20:35;;;;;;;4.53;2.60;;;36.30;47.70;;;;;;5096633;28;20055;-75
2021/06/21 12:23:09;;;;;;;4.45;2.42;;;36.50;48.50;;;;;;5109859;28;20059;-76
2021/06/21 12:25:43;;;;;;;5.47;2.45;;;37.20;45.40;;;;;;5109763;28;20031;-75
2021/06/21 12:28:23;;;;;;;7.32;2.63;;;37.70;44.10;;;;;;5111207;28;20076;-76
2021/06/21 12:31:00;;;;;;;4.65;2.78;;;37.90;44.50;;;;;;5109719;28;20019;-75
2021/06/21 12:33:36;;;;;;;4.25;2.30;;;38.10;43.40;;;;;;5106712;28;20047;-76
2021/06/21 12:36:09;;;;;;;3.72;2.50;;;38.60;43.40;;;;;;5092472;28;20031;-75
2021/06/21 12:38:36;;;;;;;7.45;3.08;;;39.00;41.60;;;;;;5110730;28;20012;-76
2021/06/21 12:41:17;;;;;;;6.25;2.35;;;39.30;41.40;;;;;;5111149;28;20068;-76
2021/06/21 12:43:57;;;;;;;4.85;2.42;;;39.40;40.20;;;;;;5099402;28;20038;-76
2021/06/21 12:46:25;;;;;;;4.43;2.58;;;39.20;42.20;;;;;;5094376;28;20396;-76
2021/06/21 12:48:51;;;;;;;9.85;2.42;;;39.50;40.70;;;;;;5109264;28;20055;-76
2021/06/21 12:51:19;;;;;;;6.00;2.55;;;39.70;39.80;;;;;;5110905;28;20051;-76